Time;durP1;ratioP1;P1;durP2;ratioP2;P2;SDS_P1;SDS_P2;PMS_P1;PMS_P2;Temp;Humidity;BMP_temperature;BMP_pressure;BME280_temperature;BME280_humidity;BME280_pressure;Samples;Min_cycle;Max_cycle;Signal;HPM_P1;HPM_P2
2022/05/07 00:02:56;;;;;;;12.40;5.10;;;;;;;6.28;87.17;100505.89;104946;1271;74913;-62
2022/05/07 00:05:44;;;;;;;10.10;4.00;;;;;;;6.28;87.88;100499.37;105057;1273;66733;-61
2022/05/07 00:08:32;;;;;;;11.00;3.50;;;;;;;6.33;87.51;100499.16;104847;1271;73851;-62
2022/05/07 00:11:22;;;;;;;9.50;3.30;;;;;;;6.36;87.69;100497.39;104766;1271;59744;-63
2022/05/07 00:14:11;;;;;;;8.80;3.00;;;;;;;6.42;87.65;100497.96;104968;1271;60236;-64
2022/05/07 00:20:07;;;;;;;10.60;3.40;;;;;;;6.51;86.95;100496.79;105126;1271;69448;-61
2022/05/07 00:22:55;;;;;;;7.40;3.00;;;;;;;6.56;87.00;100499.88;105023;1271;73013;-61
2022/05/07 00:25:44;;;;;;;9.30;3.00;;;;;;;6.61;86.55;100495.86;105318;1271;59723;-61
2022/05/07 00:28:32;;;;;;;7.10;2.70;;;;;;;6.68;86.33;100493.25;105043;1271;59538;-63
2022/05/07 00:31:21;;;;;;;8.40;2.80;;;;;;;6.72;85.89;100494.03;105256;1271;73295;-61
2022/05/07 00:34:09;;;;;;;9.00;2.70;;;;;;;6.78;85.51;100491.95;104981;1271;68380;-60
2022/05/07 00:36:56;;;;;;;8.50;3.00;;;;;;;6.82;85.44;100495.41;104978;1271;73528;-59
2022/05/07 00:39:47;;;;;;;7.90;2.80;;;;;;;6.77;85.12;100485.84;105058;1271;59723;-60
2022/05/07 00:42:35;;;;;;;9.70;3.00;;;;;;;6.84;84.83;100495.16;104918;1271;60626;-58
2022/05/07 00:45:24;;;;;;;9.60;3.50;;;;;;;6.82;84.87;100493.65;105030;1271;73996;-59
2022/05/07 00:48:14;;;;;;;7.00;2.80;;;;;;;6.80;84.84;100493.41;104898;1271;68770;-60
2022/05/07 00:54:10;;;;;;;9.00;3.10;;;;;;;6.78;84.76;100491.77;104800;1272;59765;-61
2022/05/07 00:56:57;;;;;;;10.50;3.20;;;;;;;6.78;84.97;100487.03;104967;1271;59551;-66
2022/05/07 00:59:45;;;;;;;9.20;3.10;;;;;;;6.77;84.77;100483.55;104828;1272;74413;-61
2022/05/07 01:02:33;;;;;;;8.90;3.20;;;;;;;6.77;84.58;100482.65;104831;1271;68493;-60
2022/05/07 01:05:21;;;;;;;9.20;3.00;;;;;;;6.76;84.52;100481.65;105044;1271;74603;-61
2022/05/07 01:08:12;;;;;;;9.10;3.60;;;;;;;6.73;84.65;100477.59;104835;1270;59644;-60
2022/05/07 01:11:03;;;;;;;9.00;3.30;;;;;;;6.71;84.84;100477.38;104846;1271;59747;-62
2022/05/07 01:13:53;;;;;;;9.00;3.30;;;;;;;6.67;84.71;100475.81;104962;1274;74094;-61
2022/05/07 01:16:41;;;;;;;9.60;3.60;;;;;;;6.63;84.90;100473.05;104915;1271;67619;-62
2022/05/07 01:19:30;;;;;;;9.00;3.40;;;;;;;6.59;85.06;100469.88;104890;1273;73143;-63
2022/05/07 01:22:20;;;;;;;8.60;3.30;;;;;;;6.56;85.08;100468.48;104816;1273;61134;-60
2022/05/07 01:25:09;;;;;;;10.20;3.20;;;;;;;6.55;85.40;100464.10;104948;1271;59719;-61
2022/05/07 01:27:57;;;;;;;9.30;3.40;;;;;;;6.54;85.53;100463.66;104873;1273;73461;-61
2022/05/07 01:30:47;;;;;;;8.40;3.40;;;;;;;6.55;85.64;100460.77;104911;1271;69449;-62
2022/05/07 01:33:35;;;;;;;7.50;3.00;;;;;;;6.57;85.56;100461.20;105006;1271;73209;-63
2022/05/07 01:36:26;;;;;;;8.20;2.60;;;;;;;6.59;85.74;100463.17;104983;1272;59772;-60
2022/05/07 01:39:18;;;;;;;8.10;3.00;;;;;;;6.61;85.39;100461.68;104861;1271;61521;-60
2022/05/07 01:42:06;;;;;;;7.70;2.80;;;;;;;6.61;85.65;100464.50;105090;1272;74087;-61
2022/05/07 01:44:55;;;;;;;8.50;2.90;;;;;;;6.61;85.59;100462.17;104815;1273;68338;-60
2022/05/07 01:50:55;;;;;;;9.30;2.80;;;;;;;6.56;85.53;100460.18;105051;1271;59746;-63
2022/05/07 01:53:47;;;;;;;9.20;3.10;;;;;;;6.57;85.75;100466.62;104796;1271;61894;-60
2022/05/07 01:56:35;;;;;;;9.30;2.90;;;;;;;6.56;85.30;100464.23;104773;1272;74627;-61
2022/05/07 01:59:23;;;;;;;8.60;3.30;;;;;;;6.55;85.47;100461.81;104991;1271;68901;-59
2022/05/07 02:02:13;;;;;;;7.60;3.00;;;;;;;6.56;85.75;100457.55;104684;1273;73424;-61
2022/05/07 02:05:02;;;;;;;10.80;2.80;;;;;;;6.58;85.59;100456.41;104959;1273;59817;-61
2022/05/07 02:07:51;;;;;;;8.60;2.80;;;;;;;6.58;85.68;100452.33;104921;1271;60686;-61
2022/05/07 02:10:39;;;;;;;7.20;2.90;;;;;;;6.60;85.62;100450.83;104984;1274;75058;-62
2022/05/07 02:13:28;;;;;;;8.70;2.90;;;;;;;6.59;85.46;100451.71;104084;1271;1003789;-62
2022/05/07 02:16:16;;;;;;;8.00;3.10;;;;;;;6.60;85.38;100452.05;104736;1271;73523;-61
2022/05/07 02:19:05;;;;;;;8.10;3.20;;;;;;;6.59;85.30;100450.86;104850;1271;59755;-62
2022/05/07 02:21:52;;;;;;;8.00;3.20;;;;;;;6.57;85.54;100446.90;104924;1271;59710;-64
2022/05/07 02:24:40;;;;;;;9.40;3.00;;;;;;;6.57;85.47;100445.70;104807;1271;74721;-61
2022/05/07 02:27:28;;;;;;;8.30;2.80;;;;;;;6.56;85.69;100445.02;104790;1271;66963;-63
2022/05/07 02:30:19;;;;;;;8.70;3.10;;;;;;;6.58;85.68;100450.05;104795;1271;71938;-60
2022/05/07 02:33:06;;;;;;;9.50;3.10;;;;;;;6.59;85.86;100449.08;105115;1271;59730;-60
2022/05/07 02:35:56;;;;;;;8.00;3.30;;;;;;;6.63;85.69;100448.84;104715;1274;60490;-62
2022/05/07 02:38:44;;;;;;;8.60;3.20;;;;;;;6.67;85.76;100452.35;104580;1276;73508;-63
2022/05/07 02:44:40;;;;;;;8.70;3.30;;;;;;;6.77;85.45;100449.69;104673;1275;73568;-62
2022/05/07 02:47:29;;;;;;;7.70;3.20;;;;;;;6.83;85.32;100447.77;104957;1275;59882;-62
2022/05/07 02:50:17;;;;;;;10.50;3.20;;;;;;;6.90;85.08;100442.29;104826;1274;59813;-61
2022/05/07 02:53:06;;;;;;;9.40;3.50;;;;;;;6.97;84.75;100444.70;104882;1275;72223;-61
2022/05/07 02:55:54;;;;;;;9.00;3.30;;;;;;;7.05;84.52;100445.14;104705;1274;69783;-62
2022/05/07 02:58:42;;;;;;;10.70;2.90;;;;;;;7.14;84.93;100448.17;105107;1275;74053;-61
2022/05/07 03:01:30;;;;;;;8.00;3.00;;;;;;;7.22;84.30;100447.02;104844;1275;59630;-64
2022/05/07 03:04:19;;;;;;;7.90;3.20;;;;;;;7.29;83.96;100443.60;104692;1274;60508;-62
2022/05/07 03:07:07;;;;;;;8.80;3.10;;;;;;;7.34;83.78;100446.48;104725;1275;73548;-62
2022/05/07 03:09:55;;;;;;;7.90;3.10;;;;;;;7.39;83.52;100450.21;104683;1275;67899;-61
2022/05/07 03:12:43;;;;;;;10.30;3.30;;;;;;;7.43;83.17;100449.83;104705;1274;74324;-63
2022/05/07 03:15:32;;;;;;;8.50;3.20;;;;;;;7.44;83.03;100449.75;105123;1271;59785;-61
2022/05/07 03:18:22;;;;;;;8.20;3.20;;;;;;;7.46;83.01;100449.81;104874;1271;61305;-63
2022/05/07 03:21:11;;;;;;;9.60;3.60;;;;;;;7.46;82.83;100442.91;104878;1271;73980;-63
2022/05/07 03:24:01;;;;;;;9.80;3.60;;;;;;;7.53;82.66;100447.52;105080;1271;67299;-65
2022/05/07 03:26:49;;;;;;;10.50;3.90;;;;;;;7.57;82.66;100449.73;105046;1271;72769;-64
2022/05/07 03:29:41;;;;;;;9.50;3.80;;;;;;;7.59;82.45;100448.71;105060;1271;59736;-62
2022/05/07 03:32:35;;;;;;;10.00;3.70;;;;;;;7.62;82.51;100443.96;105336;1271;60484;-64
2022/05/07 03:35:23;;;;;;;9.90;3.70;;;;;;;7.63;82.51;100445.81;105154;1271;74523;-65
2022/05/07 03:38:11;;;;;;;8.80;3.80;;;;;;;7.66;82.37;100444.77;105068;1271;68783;-62
2022/05/07 03:41:25;;;;;;;10.40;4.10;;;;;;;7.67;82.49;100442.05;104954;1271;73413;-61
2022/05/07 03:44:13;;;;;;;11.50;3.80;;;;;;;7.71;82.45;100443.63;104888;1271;60086;-65
2022/05/07 03:47:01;;;;;;;10.40;3.80;;;;;;;7.73;82.47;100443.12;104849;1271;62109;-63
2022/05/07 03:49:49;;;;;;;9.30;4.40;;;;;;;7.77;82.16;100442.90;104856;1271;73036;-64
2022/05/07 03:55:44;;;;;;;7.90;3.00;;;;;;;7.90;81.71;100436.10;104906;1271;72514;-61
2022/05/07 03:58:40;;;;;;;8.90;3.00;;;;;;;7.98;81.37;100437.77;105033;1271;60891;-60
2022/05/07 04:01:34;;;;;;;7.80;3.20;;;;;;;8.05;81.16;100435.00;104885;1272;59650;-60
2022/05/07 04:04:25;;;;;;;8.80;3.30;;;;;;;8.11;80.80;100431.66;105050;1274;74690;-61
2022/05/07 04:07:15;;;;;;;8.20;3.50;;;;;;;8.17;80.65;100427.41;104908;1274;68628;-61
2022/05/07 04:10:09;;;;;;;7.70;2.80;;;;;;;8.24;80.47;100428.23;104445;1274;74468;-61
2022/05/07 04:13:01;;;;;;;7.20;3.10;;;;;;;8.28;79.95;100423.91;105087;1271;59887;-62
2022/05/07 04:15:50;;;;;;;8.00;2.70;;;;;;;8.32;79.77;100422.61;104868;1271;61430;-62
2022/05/07 04:18:39;;;;;;;7.50;3.20;;;;;;;8.39;79.43;100420.76;105413;1271;74005;-62
2022/05/07 04:21:32;;;;;;;7.40;3.20;;;;;;;8.46;79.13;100421.55;104842;1272;67992;-63
2022/05/07 04:24:43;;;;;;;7.20;2.80;;;;;;;8.56;78.88;100419.03;104990;1271;73085;-62
2022/05/07 04:27:31;;;;;;;7.60;2.60;;;;;;;8.63;78.41;100417.81;104294;1271;1003035;-66
2022/05/07 04:30:24;;;;;;;7.50;2.90;;;;;;;8.72;78.08;100411.95;104869;1271;60519;-64
2022/05/07 04:33:16;;;;;;;7.50;2.90;;;;;;;8.80;77.80;100411.98;104796;1271;73541;-64
2022/05/07 04:36:04;;;;;;;6.50;2.50;;;;;;;8.89;77.66;100409.09;105324;1274;68720;-65
2022/05/07 04:38:53;;;;;;;10.10;3.00;;;;;;;9.02;77.22;100407.92;104699;1274;72460;-63
2022/05/07 04:41:46;;;;;;;7.90;3.10;;;;;;;9.16;76.40;100405.16;104846;1271;59703;-63
2022/05/07 04:44:35;;;;;;;11.80;3.10;;;;;;;9.28;75.71;100408.45;105069;1271;60672;-64
2022/05/07 04:47:25;;;;;;;7.80;3.00;;;;;;;9.39;75.36;100406.01;105078;1272;73129;-65
2022/05/07 04:50:13;;;;;;;7.60;3.00;;;;;;;9.47;75.21;100405.75;104770;1274;67813;-63
2022/05/07 04:53:08;;;;;;;7.70;3.30;;;;;;;9.55;74.74;100403.35;105118;1272;74337;-62
2022/05/07 04:55:56;;;;;;;7.10;2.90;;;;;;;9.62;74.62;100401.98;104806;1272;59654;-64
2022/05/07 04:58:47;;;;;;;7.20;2.90;;;;;;;9.69;74.08;100402.50;104703;1271;61487;-62
2022/05/07 05:01:35;;;;;;;9.00;3.00;;;;;;;9.80;73.73;100404.98;104891;1274;73265;-61
2022/05/07 05:04:24;;;;;;;8.80;3.00;;;;;;;9.97;73.50;100407.73;104637;1273;69561;-66
2022/05/07 05:07:13;;;;;;;7.00;2.90;;;;;;;10.12;72.71;100408.94;104576;1276;73248;-63
2022/05/07 05:10:04;;;;;;;7.90;2.80;;;;;;;10.24;72.24;100406.89;104555;1276;60235;-62
2022/05/07 05:13:00;;;;;;;7.20;3.10;;;;;;;10.33;72.21;100410.33;104614;1273;61360;-65
2022/05/07 05:15:50;;;;;;;6.70;2.70;;;;;;;10.42;71.97;100409.20;104704;1272;72331;-61
2022/05/07 05:19:09;;;;;;;8.10;3.10;;;;;;;10.49;71.71;100409.92;104929;1273;67865;-64
2022/05/07 05:21:58;;;;;;;6.70;2.70;;;;;;;10.60;71.87;100405.94;104890;1273;73458;-65
2022/05/07 05:24:51;;;;;;;8.30;3.00;;;;;;;10.73;70.99;100403.94;104835;1273;59641;-63
2022/05/07 05:27:40;;;;;;;8.20;3.10;;;;;;;10.84;70.49;100401.33;104630;1275;60535;-64
2022/05/07 05:30:29;;;;;;;7.20;2.80;;;;;;;10.97;70.65;100402.91;104835;1273;73095;-65
2022/05/07 05:33:23;;;;;;;9.60;3.90;;;;;;;11.12;69.79;100403.06;104613;1273;67137;-61
2022/05/07 05:36:26;;;;;;;9.20;4.20;;;;;;;11.24;69.78;100402.12;104894;1273;74422;-60
2022/05/07 05:39:18;;;;;;;9.70;3.50;;;;;;;11.42;69.40;100403.82;104890;1273;59752;-62
2022/05/07 05:42:07;;;;;;;9.30;4.30;;;;;;;11.56;69.16;100405.76;104768;1273;59654;-60
2022/05/07 05:45:01;;;;;;;7.60;2.90;;;;;;;11.71;68.64;100404.63;104649;1273;74541;-60
2022/05/07 05:47:49;;;;;;;9.80;4.20;;;;;;;11.82;68.35;100405.41;104845;1273;68513;-61
2022/05/07 05:50:38;;;;;;;7.90;3.50;;;;;;;11.87;67.97;100398.98;104663;1274;73206;-61
2022/05/07 05:53:27;;;;;;;11.70;6.00;;;;;;;11.93;68.17;100398.34;104592;1273;59798;-60
2022/05/07 05:56:14;;;;;;;9.00;3.30;;;;;;;12.04;68.01;100396.96;104858;1273;59552;-60
2022/05/07 05:59:07;;;;;;;9.20;3.70;;;;;;;12.18;67.76;100398.57;104999;1273;74334;-60
2022/05/07 06:02:03;;;;;;;7.10;3.10;;;;;;;12.36;67.83;100400.66;104833;1275;68415;-59
2022/05/07 06:04:56;;;;;;;9.20;3.30;;;;;;;12.51;67.01;100397.48;104931;1273;72595;-62
2022/05/07 06:07:46;;;;;;;7.50;3.80;;;;;;;12.62;66.67;100395.39;104807;1277;60371;-63
2022/05/07 06:10:35;;;;;;;8.30;3.80;;;;;;;12.72;66.35;100394.59;104501;1279;60384;-62
2022/05/07 06:13:26;;;;;;;8.40;3.30;;;;;;;12.80;66.30;100390.51;104292;1282;73552;-60
2022/05/07 06:16:17;;;;;;;8.90;3.00;;;;;;;12.89;65.89;100394.23;104039;1283;69578;-62
2022/05/07 06:19:07;;;;;;;7.70;3.20;;;;;;;13.03;65.70;100395.05;104354;1282;73738;-62
2022/05/07 06:21:56;;;;;;;8.40;3.20;;;;;;;13.19;64.79;100385.40;104333;1282;59761;-65
2022/05/07 06:28:01;;;;;;;8.40;2.90;;;;;;;13.73;63.57;100390.33;104031;1282;74967;-63
2022/05/07 06:30:52;;;;;;;8.70;3.00;;;;;;;13.94;63.33;100390.98;104036;1282;68482;-62
2022/05/07 06:33:41;;;;;;;8.90;3.70;;;;;;;14.15;62.26;100391.55;104175;1282;72883;-62
2022/05/07 06:36:29;;;;;;;8.90;3.40;;;;;;;14.26;61.70;100388.58;104045;1282;59691;-63
2022/05/07 06:39:20;;;;;;;9.50;3.70;;;;;;;14.45;61.57;100391.52;103994;1282;60494;-62
2022/05/07 06:42:08;;;;;;;9.30;3.10;;;;;;;14.60;60.95;100394.15;104022;1279;73831;-62
2022/05/07 06:45:05;;;;;;;7.30;3.10;;;;;;;14.64;59.80;100394.52;104460;1274;69603;-62
2022/05/07 06:47:53;;;;;;;7.80;3.10;;;;;;;14.63;60.26;100392.86;104454;1276;73228;-62
2022/05/07 06:50:41;;;;;;;9.40;3.80;;;;;;;14.67;60.22;100393.95;104706;1276;59771;-65
2022/05/07 06:53:30;;;;;;;7.90;3.10;;;;;;;14.68;59.94;100393.67;104667;1276;59858;-68
2022/05/07 06:56:18;;;;;;;8.50;3.10;;;;;;;14.56;59.85;100396.68;104314;1277;72562;-70
2022/05/07 06:59:08;;;;;;;8.60;4.00;;;;;;;14.47;60.92;100401.52;104392;1277;69256;-71
2022/05/07 07:01:57;;;;;;;8.80;3.10;;;;;;;14.43;61.02;100400.84;104588;1276;74426;-68
2022/05/07 07:04:45;;;;;;;8.10;3.30;;;;;;;14.36;61.17;100404.85;104777;1276;59761;-69
2022/05/07 07:07:33;;;;;;;8.80;3.40;;;;;;;14.26;61.63;100405.48;104319;1277;59578;-67
2022/05/07 07:10:21;;;;;;;9.90;3.40;;;;;;;14.23;62.06;100405.29;104619;1277;74332;-67
2022/05/07 07:13:09;;;;;;;7.70;3.20;;;;;;;14.19;62.31;100403.67;104550;1276;69583;-70
2022/05/07 07:15:59;;;;;;;8.80;3.50;;;;;;;14.15;62.58;100404.00;104485;1276;72079;-69
2022/05/07 07:18:47;;;;;;;9.30;3.40;;;;;;;14.12;62.78;100402.23;104547;1277;59776;-69
2022/05/07 07:21:34;;;;;;;7.20;3.00;;;;;;;14.05;63.03;100403.11;104776;1273;61609;-64
2022/05/07 07:24:22;;;;;;;7.80;3.20;;;;;;;14.04;63.37;100406.60;104733;1273;72662;-67
2022/05/07 07:27:11;;;;;;;8.80;3.60;;;;;;;14.02;63.46;100406.20;104730;1273;68499;-64
2022/05/07 07:30:02;;;;;;;7.80;3.40;;;;;;;14.06;63.44;100404.41;104689;1274;72691;-66
2022/05/07 07:32:54;;;;;;;7.80;3.70;;;;;;;14.45;62.53;100402.98;104562;1275;59870;-64
2022/05/07 07:35:43;;;;;;;8.90;3.70;;;;;;;14.80;61.30;100400.45;104530;1274;60508;-65
2022/05/07 07:38:32;;;;;;;9.10;3.40;;;;;;;14.95;60.50;100391.02;104745;1274;71714;-63
2022/05/07 07:41:21;;;;;;;9.30;3.50;;;;;;;15.10;59.64;100394.67;104789;1274;68543;-62
2022/05/07 07:44:10;;;;;;;10.50;4.00;;;;;;;15.11;58.89;100397.48;104664;1274;72282;-65
2022/05/07 07:50:06;;;;;;;9.60;4.60;;;;;;;14.77;58.87;100405.17;104714;1273;61596;-64
2022/05/07 07:53:02;;;;;;;10.90;3.60;;;;;;;14.62;58.88;100403.48;104789;1276;73799;-65
2022/05/07 07:55:52;;;;;;;10.30;4.50;;;;;;;14.57;59.19;100409.02;104608;1274;69404;-64
2022/05/07 07:58:41;;;;;;;9.50;3.60;;;;;;;14.59;59.76;100403.88;104662;1276;73478;-64
2022/05/07 08:01:28;;;;;;;9.60;3.50;;;;;;;14.68;59.54;100401.69;104884;1274;59696;-64
2022/05/07 08:04:16;;;;;;;9.00;3.90;;;;;;;14.71;58.80;100398.00;104783;1276;60480;-65
2022/05/07 08:13:19;;;;;;;9.80;4.10;;;;;;;15.15;57.63;100384.55;104899;1274;71319;-64
2022/05/07 08:16:09;;;;;;;9.60;4.00;;;;;;;15.49;56.92;100389.10;104963;1274;60034;-64
2022/05/07 08:18:57;;;;;;;7.80;3.70;;;;;;;15.82;56.25;100388.98;104730;1274;60381;-64
2022/05/07 08:21:47;;;;;;;9.80;3.80;;;;;;;16.64;54.46;100388.69;104729;1274;73654;-64
2022/05/07 08:24:36;;;;;;;8.60;3.90;;;;;;;17.55;51.09;100380.14;104664;1274;69578;-65
2022/05/07 08:27:24;;;;;;;8.20;3.80;;;;;;;18.11;49.54;100377.55;104650;1274;73568;-67
2022/05/07 08:30:13;;;;;;;7.70;3.70;;;;;;;19.13;47.08;100373.77;104652;1274;59711;-66
2022/05/07 08:33:04;;;;;;;8.20;3.30;;;;;;;19.87;45.53;100363.91;104916;1274;60425;-67
2022/05/07 08:35:52;;;;;;;7.50;2.90;;;;;;;20.45;44.43;100363.13;104804;1274;73918;-68
2022/05/07 08:38:43;;;;;;;7.60;2.70;;;;;;;20.72;43.65;100365.20;104895;1274;68423;-66
2022/05/07 08:41:31;;;;;;;8.70;3.10;;;;;;;20.59;42.20;100360.55;104830;1274;71738;-64
2022/05/07 08:44:21;;;;;;;9.50;3.20;;;;;;;20.60;42.18;100360.25;104593;1274;59816;-68
2022/05/07 08:47:09;;;;;;;7.60;2.90;;;;;;;20.78;42.36;100361.48;104659;1273;62132;-67
2022/05/07 08:49:57;;;;;;;7.70;3.40;;;;;;;20.98;41.71;100358.48;104604;1274;74636;-65
2022/05/07 08:52:46;;;;;;;7.30;3.50;;;;;;;21.89;39.49;100345.52;104626;1274;68612;-66
2022/05/07 08:55:36;;;;;;;7.00;3.10;;;;;;;23.18;37.19;100349.02;104937;1274;72695;-67
2022/05/07 08:58:23;;;;;;;9.20;2.90;;;;;;;24.46;35.15;100338.44;104778;1274;59964;-67
2022/05/07 09:01:11;;;;;;;8.30;2.90;;;;;;;25.57;32.96;100333.41;105008;1274;61931;-65
2022/05/07 09:04:11;;;;;;;7.10;2.80;;;;;;;26.54;31.57;100334.11;104740;1274;73187;-67
2022/05/07 09:07:03;;;;;;;7.10;3.10;;;;;;;27.25;29.62;100326.04;104754;1273;69664;-66
2022/05/07 09:09:51;;;;;;;7.20;3.00;;;;;;;27.93;28.28;100320.09;104669;1274;72416;-63
2022/05/07 09:12:39;;;;;;;7.50;2.70;;;;;;;28.53;27.97;100319.77;104720;1274;59656;-63
2022/05/07 09:15:28;;;;;;;6.90;2.90;;;;;;;28.50;26.80;100320.62;104790;1274;60594;-64
2022/05/07 09:18:19;;;;;;;8.80;2.90;;;;;;;28.49;26.89;100321.73;104745;1274;73000;-63
2022/05/07 09:21:26;;;;;;;7.20;3.20;;;;;;;28.84;26.94;100322.86;104950;1274;68159;-63
2022/05/07 09:24:14;;;;;;;7.60;2.90;;;;;;;29.30;26.35;100321.66;104709;1274;73333;-63
2022/05/07 09:27:04;;;;;;;6.90;2.70;;;;;;;29.59;25.94;100317.53;104922;1273;59749;-65
2022/05/07 09:30:02;;;;;;;7.00;2.70;;;;;;;29.27;25.63;100314.30;104704;1274;60374;-64
2022/05/07 09:32:52;;;;;;;7.30;3.00;;;;;;;29.02;25.59;100315.48;104987;1274;73843;-64
2022/05/07 09:35:49;;;;;;;6.60;2.80;;;;;;;28.97;25.65;100322.69;104843;1274;67013;-64
2022/05/07 09:38:38;;;;;;;7.10;2.10;;;;;;;29.54;25.59;100316.36;104926;1274;73006;-67
2022/05/07 09:41:26;;;;;;;6.40;2.50;;;;;;;29.32;25.24;100315.02;104712;1273;59745;-63
2022/05/07 09:44:13;;;;;;;5.80;2.00;;;;;;;29.09;25.34;100306.35;104722;1274;60196;-64
2022/05/07 09:47:04;;;;;;;7.40;2.00;;;;;;;29.12;25.53;100314.15;104928;1274;73936;-64
2022/05/07 09:59:22;;;;;;;6.90;2.90;;;;;;;28.50;26.04;100302.00;104726;1274;62169;-61
2022/05/07 10:02:49;;;;;;;6.90;2.00;;;;;;;27.46;26.85;100304.03;104650;1274;74573;-60
2022/05/07 10:05:52;;;;;;;6.90;2.20;;;;;;;26.57;28.89;100308.05;104664;1274;67626;-62
2022/05/07 10:09:13;;;;;;;7.80;2.10;;;;;;;25.56;30.05;100307.13;104853;1274;72633;-61
2022/05/07 10:12:01;;;;;;;7.40;2.20;;;;;;;24.66;31.62;100308.92;105144;1274;60317;-62
2022/05/07 10:14:50;;;;;;;6.60;2.40;;;;;;;24.06;32.82;100309.30;104843;1274;61062;-61
2022/05/07 10:17:38;;;;;;;7.60;2.40;;;;;;;23.29;33.78;100304.61;104769;1274;73972;-61
2022/05/07 10:20:39;;;;;;;7.10;2.40;;;;;;;22.59;34.55;100308.59;104913;1274;67211;-63
2022/05/07 10:23:29;;;;;;;11.10;3.20;;;;;;;22.14;35.71;100310.87;105098;1274;74202;-61
2022/05/07 10:26:17;;;;;;;6.90;2.60;;;;;;;21.99;36.20;100317.89;104986;1274;59572;-60
2022/05/07 10:29:07;;;;;;;8.00;2.40;;;;;;;21.92;36.02;100311.17;104756;1274;60321;-61
2022/05/07 10:32:05;;;;;;;7.10;2.40;;;;;;;22.04;36.34;100309.54;104617;1274;73891;-62
2022/05/07 10:34:53;;;;;;;7.30;2.50;;;;;;;22.03;35.66;100313.48;104746;1274;69497;-62
2022/05/07 10:37:42;;;;;;;7.00;2.70;;;;;;;21.73;36.22;100307.70;104600;1277;74053;-61
2022/05/07 10:40:31;;;;;;;7.20;2.50;;;;;;;21.47;37.17;100307.22;104570;1277;59855;-62
2022/05/07 10:43:41;;;;;;;9.20;2.90;;;;;;;21.25;37.43;100305.16;104600;1276;59584;-62
2022/05/07 10:46:47;;;;;;;7.80;2.70;;;;;;;21.20;37.83;100304.59;104583;1277;73833;-63
2022/05/07 10:49:49;;;;;;;7.90;2.60;;;;;;;20.99;38.37;100308.85;104834;1276;68868;-61
2022/05/07 10:52:37;;;;;;;7.20;2.70;;;;;;;20.89;38.69;100311.13;104779;1277;73205;-64
2022/05/07 10:55:27;;;;;;;8.10;2.70;;;;;;;20.86;38.58;100309.01;104506;1276;59583;-65
2022/05/07 10:58:14;;;;;;;7.80;2.70;;;;;;;20.64;38.63;100306.87;104670;1276;60307;-64
2022/05/07 11:01:03;;;;;;;7.80;2.80;;;;;;;20.54;38.39;100302.19;104578;1277;73935;-61
2022/05/07 11:04:06;;;;;;;7.40;2.60;;;;;;;20.43;38.62;100304.25;104506;1277;69680;-62
2022/05/07 11:06:54;;;;;;;7.40;2.50;;;;;;;20.29;38.62;100305.35;104455;1277;73429;-63
2022/05/07 11:09:50;;;;;;;6.60;2.10;;;;;;;20.09;39.21;100305.91;104590;1277;60688;-61
2022/05/07 11:12:39;;;;;;;7.50;2.70;;;;;;;19.88;39.81;100308.09;104465;1277;61345;-63
2022/05/07 11:15:27;;;;;;;6.90;2.70;;;;;;;19.67;40.41;100310.82;104433;1276;74618;-64
2022/05/07 11:18:16;;;;;;;8.50;2.80;;;;;;;19.55;41.05;100311.83;104689;1274;68574;-62
2022/05/07 11:21:05;;;;;;;7.10;2.50;;;;;;;19.55;41.71;100314.34;104648;1274;73431;-60
2022/05/07 11:23:59;;;;;;;7.90;2.80;;;;;;;19.65;42.27;100314.10;104944;1274;60494;-61
2022/05/07 11:27:11;;;;;;;7.60;2.80;;;;;;;19.82;41.94;100314.22;105201;1273;60792;-61
2022/05/07 11:30:01;;;;;;;7.90;2.90;;;;;;;19.88;41.60;100308.34;104871;1274;74517;-61
2022/05/07 11:32:53;;;;;;;7.70;3.00;;;;;;;20.03;41.96;100309.98;104745;1273;69583;-61
2022/05/07 11:35:41;;;;;;;8.30;3.20;;;;;;;20.20;41.58;100306.80;104733;1273;73388;-63
2022/05/07 11:38:30;;;;;;;7.50;3.10;;;;;;;20.42;41.30;100306.18;104641;1273;59669;-61
2022/05/07 11:41:22;;;;;;;9.60;3.50;;;;;;;20.64;40.89;100305.21;104655;1274;59669;-62
2022/05/07 11:47:37;;;;;;;10.00;3.60;;;;;;;21.07;40.14;100295.33;104699;1273;69810;-60
2022/05/07 11:50:33;;;;;;;8.90;3.60;;;;;;;21.33;40.13;100291.13;104695;1273;74377;-63
2022/05/07 11:53:35;;;;;;;9.30;3.90;;;;;;;21.55;39.22;100289.45;104865;1273;59765;-61
2022/05/07 11:56:29;;;;;;;10.50;3.60;;;;;;;21.67;38.67;100289.63;104646;1273;59630;-61
2022/05/07 11:59:17;;;;;;;8.80;3.70;;;;;;;21.31;38.72;100287.06;104878;1274;73055;-62
2022/05/07 12:02:08;;;;;;;8.40;3.10;;;;;;;20.96;39.72;100286.90;104672;1274;67783;-65
2022/05/07 12:04:57;;;;;;;9.60;3.30;;;;;;;20.60;40.45;100286.09;104777;1274;73568;-62
2022/05/07 12:07:51;;;;;;;9.60;4.20;;;;;;;20.17;41.20;100286.08;104725;1274;59885;-61
2022/05/07 12:10:39;;;;;;;8.30;3.40;;;;;;;19.77;42.23;100288.84;104763;1274;59624;-64
2022/05/07 12:13:28;;;;;;;10.50;3.60;;;;;;;19.53;43.08;100293.52;104715;1274;73927;-65
2022/05/07 12:19:23;;;;;;;10.80;4.40;;;;;;;19.19;44.28;100291.44;104958;1273;72251;-63
2022/05/07 12:31:33;;;;;;;8.70;3.10;;;;;;;18.59;45.54;100298.36;104991;1273;68899;-63
2022/05/07 12:34:21;;;;;;;8.60;3.20;;;;;;;18.31;46.95;100306.32;104715;1273;74453;-63
2022/05/07 12:37:09;;;;;;;8.80;3.40;;;;;;;18.11;48.77;100311.71;104682;1274;59676;-64
2022/05/07 12:40:01;;;;;;;8.50;3.70;;;;;;;18.06;49.38;100313.38;104919;1273;60649;-61
2022/05/07 12:42:50;;;;;;;9.30;3.60;;;;;;;18.13;49.59;100307.56;104690;1273;74101;-64
2022/05/07 12:45:38;;;;;;;8.40;3.10;;;;;;;18.24;49.56;100307.67;104914;1273;67956;-64
2022/05/07 12:48:26;;;;;;;9.10;3.50;;;;;;;18.22;49.55;100303.16;104642;1274;73407;-63
2022/05/07 12:51:14;;;;;;;8.80;3.40;;;;;;;18.12;50.11;100303.73;104735;1273;59836;-65
2022/05/07 12:54:03;;;;;;;9.40;4.10;;;;;;;18.01;50.62;100309.01;104788;1273;60589;-64
2022/05/07 12:56:52;;;;;;;10.20;4.10;;;;;;;17.95;51.04;100306.46;104637;1273;73214;-63
2022/05/07 12:59:40;;;;;;;9.70;4.20;;;;;;;17.93;51.34;100305.05;104768;1274;68547;-62
2022/05/07 13:02:31;;;;;;;9.50;4.20;;;;;;;17.95;51.26;100306.60;104792;1273;73840;-64
2022/05/07 13:05:19;;;;;;;10.80;3.60;;;;;;;17.91;50.14;100305.89;104916;1273;59702;-62
2022/05/07 13:08:28;;;;;;;9.30;3.90;;;;;;;17.90;48.78;100301.14;104998;1273;60682;-63
2022/05/07 13:11:17;;;;;;;10.90;3.30;;;;;;;17.95;48.74;100297.73;104762;1273;74636;-63
2022/05/07 13:14:05;;;;;;;8.90;3.70;;;;;;;18.05;48.42;100301.59;104656;1273;68374;-62
2022/05/07 13:16:54;;;;;;;11.00;3.40;;;;;;;18.16;47.93;100303.61;104847;1273;74729;-62
2022/05/07 13:19:42;;;;;;;9.10;3.60;;;;;;;18.24;47.49;100298.39;104935;1273;59984;-66
2022/05/07 13:22:32;;;;;;;10.00;3.90;;;;;;;18.33;47.37;100304.41;104703;1274;59723;-68
2022/05/07 13:25:22;;;;;;;8.30;3.40;;;;;;;18.45;47.29;100300.19;104793;1273;74636;-62
2022/05/07 13:28:11;;;;;;;7.10;3.10;;;;;;;18.52;46.81;100294.65;104700;1274;66544;-64
2022/05/07 13:30:59;;;;;;;8.90;3.60;;;;;;;18.54;47.09;100302.30;105024;1273;73142;-63
2022/05/07 13:33:47;;;;;;;8.90;3.60;;;;;;;18.52;47.51;100303.02;106117;1273;59866;-63
2022/05/07 13:36:35;;;;;;;10.50;3.90;;;;;;;18.45;47.68;100305.85;107107;1273;59226;-65
2022/05/07 13:39:23;;;;;;;10.90;4.10;;;;;;;18.35;48.37;100305.55;106755;1273;72593;-63
2022/05/07 13:42:11;;;;;;;9.60;4.40;;;;;;;18.20;48.62;100306.23;107497;1273;67100;-64
2022/05/07 13:44:59;;;;;;;9.80;4.00;;;;;;;17.99;48.84;100308.70;106011;1273;73412;-67
2022/05/07 13:47:47;;;;;;;10.40;4.50;;;;;;;17.71;49.09;100308.30;104727;1273;59774;-67
2022/05/07 13:50:39;;;;;;;11.00;4.50;;;;;;;17.45;48.93;100302.77;104811;1273;59795;-64
2022/05/07 13:53:27;;;;;;;11.50;4.30;;;;;;;17.27;49.12;100307.96;104907;1273;74668;-64
2022/05/07 13:56:15;;;;;;;8.90;3.60;;;;;;;17.15;49.13;100305.44;104678;1273;66673;-64
2022/05/07 13:59:03;;;;;;;9.20;3.80;;;;;;;17.16;49.27;100301.89;104640;1273;73394;-64
2022/05/07 14:01:52;;;;;;;11.90;3.40;;;;;;;17.29;49.27;100302.78;105246;1273;59660;-61